sensor_id;sensor_type;location;lat;lon;timestamp;P1;durP1;ratioP1;P2;durP2;ratioP2
5833;SDS011;2943;48.012;10.968;2023-03-23T00:02:04;8.13;;;6.10;;
5833;SDS011;2943;48.012;10.968;2023-03-23T00:04:32;9.50;;;6.97;;
5833;SDS011;2943;48.012;10.968;2023-03-23T00:06:59;8.00;;;5.53;;
5833;SDS011;2943;48.012;10.968;2023-03-23T00:09:27;8.37;;;6.27;;
5833;SDS011;2943;48.012;10.968;2023-03-23T00:11:55;10.50;;;6.17;;
5833;SDS011;2943;48.012;10.968;2023-03-23T00:14:30;9.37;;;6.20;;
5833;SDS011;2943;48.012;10.968;2023-03-23T00:17:07;8.20;;;5.53;;
5833;SDS011;2943;48.012;10.968;2023-03-23T00:19:39;7.50;;;5.70;;
5833;SDS011;2943;48.012;10.968;2023-03-23T00:22:12;6.47;;;4.90;;
5833;SDS011;2943;48.012;10.968;2023-03-23T00:24:40;5.60;;;4.80;;
5833;SDS011;2943;48.012;10.968;2023-03-23T00:27:08;7.93;;;5.77;;
5833;SDS011;2943;48.012;10.968;2023-03-23T00:29:37;7.00;;;5.87;;
5833;SDS011;2943;48.012;10.968;2023-03-23T00:32:05;9.33;;;5.90;;
5833;SDS011;2943;48.012;10.968;2023-03-23T00:34:38;9.97;;;5.87;;
5833;SDS011;2943;48.012;10.968;2023-03-23T00:37:05;5.77;;;4.90;;
5833;SDS011;2943;48.012;10.968;2023-03-23T00:39:34;9.40;;;6.67;;
5833;SDS011;2943;48.012;10.968;2023-03-23T00:42:02;7.33;;;5.00;;
5833;SDS011;2943;48.012;10.968;2023-03-23T00:44:32;11.80;;;5.40;;
5833;SDS011;2943;48.012;10.968;2023-03-23T00:47:02;8.70;;;5.83;;
5833;SDS011;2943;48.012;10.968;2023-03-23T00:49:31;5.60;;;5.00;;
5833;SDS011;2943;48.012;10.968;2023-03-23T00:52:00;7.27;;;5.20;;
5833;SDS011;2943;48.012;10.968;2023-03-23T00:54:27;6.13;;;5.10;;
5833;SDS011;2943;48.012;10.968;2023-03-23T00:56:54;8.17;;;4.93;;
5833;SDS011;2943;48.012;10.968;2023-03-23T00:59:22;7.93;;;5.23;;
5833;SDS011;2943;48.012;10.968;2023-03-23T01:01:49;5.63;;;5.03;;
5833;SDS011;2943;48.012;10.968;2023-03-23T01:04:16;6.03;;;5.43;;
5833;SDS011;2943;48.012;10.968;2023-03-23T01:06:46;7.43;;;5.57;;
5833;SDS011;2943;48.012;10.968;2023-03-23T01:09:17;6.60;;;4.43;;
5833;SDS011;2943;48.012;10.968;2023-03-23T01:11:46;6.33;;;5.63;;
5833;SDS011;2943;48.012;10.968;2023-03-23T01:14:14;6.80;;;5.10;;
5833;SDS011;2943;48.012;10.968;2023-03-23T01:16:44;8.00;;;5.20;;
5833;SDS011;2943;48.012;10.968;2023-03-23T01:19:11;5.20;;;4.70;;
5833;SDS011;2943;48.012;10.968;2023-03-23T01:21:40;8.30;;;5.47;;
5833;SDS011;2943;48.012;10.968;2023-03-23T01:24:08;6.93;;;5.50;;
5833;SDS011;2943;48.012;10.968;2023-03-23T01:26:35;6.67;;;5.43;;
5833;SDS011;2943;48.012;10.968;2023-03-23T01:29:02;10.77;;;4.73;;
5833;SDS011;2943;48.012;10.968;2023-03-23T01:31:29;5.50;;;4.87;;
5833;SDS011;2943;48.012;10.968;2023-03-23T01:33:56;10.27;;;5.57;;
5833;SDS011;2943;48.012;10.968;2023-03-23T01:36:27;5.83;;;5.17;;
5833;SDS011;2943;48.012;10.968;2023-03-23T01:38:58;7.50;;;5.33;;
5833;SDS011;2943;48.012;10.968;2023-03-23T01:41:27;5.47;;;4.50;;
5833;SDS011;2943;48.012;10.968;2023-03-23T01:43:58;6.67;;;5.00;;
5833;SDS011;2943;48.012;10.968;2023-03-23T01:46:28;6.00;;;5.27;;
5833;SDS011;2943;48.012;10.968;2023-03-23T01:48:56;5.73;;;4.90;;
5833;SDS011;2943;48.012;10.968;2023-03-23T01:51:26;7.33;;;5.93;;
5833;SDS011;2943;48.012;10.968;2023-03-23T01:53:55;6.87;;;4.80;;
5833;SDS011;2943;48.012;10.968;2023-03-23T01:56:28;6.93;;;5.47;;
5833;SDS011;2943;48.012;10.968;2023-03-23T01:59:03;8.83;;;4.90;;
5833;SDS011;2943;48.012;10.968;2023-03-23T02:01:30;8.33;;;5.30;;
5833;SDS011;2943;48.012;10.968;2023-03-23T02:04:01;7.10;;;5.67;;
5833;SDS011;2943;48.012;10.968;2023-03-23T02:06:29;8.03;;;5.80;;
5833;SDS011;2943;48.012;10.968;2023-03-23T02:08:55;6.63;;;5.50;;
5833;SDS011;2943;48.012;10.968;2023-03-23T02:11:22;7.70;;;5.10;;
5833;SDS011;2943;48.012;10.968;2023-03-23T02:13:51;5.60;;;5.10;;
5833;SDS011;2943;48.012;10.968;2023-03-23T02:16:21;10.20;;;6.30;;
5833;SDS011;2943;48.012;10.968;2023-03-23T02:18:57;7.00;;;5.80;;
5833;SDS011;2943;48.012;10.968;2023-03-23T02:21:50;8.60;;;5.77;;
5833;SDS011;2943;48.012;10.968;2023-03-23T02:24:51;6.07;;;5.07;;
5833;SDS011;2943;48.012;10.968;2023-03-23T02:27:33;7.83;;;5.90;;
5833;SDS011;2943;48.012;10.968;2023-03-23T02:33:27;11.40;;;6.43;;
5833;SDS011;2943;48.012;10.968;2023-03-23T02:36:02;6.67;;;5.00;;
5833;SDS011;2943;48.012;10.968;2023-03-23T02:38:35;7.73;;;5.93;;
5833;SDS011;2943;48.012;10.968;2023-03-23T02:41:07;7.73;;;5.70;;
5833;SDS011;2943;48.012;10.968;2023-03-23T02:43:39;6.93;;;5.33;;
5833;SDS011;2943;48.012;10.968;2023-03-23T02:46:08;9.13;;;5.97;;
5833;SDS011;2943;48.012;10.968;2023-03-23T02:48:38;9.80;;;6.30;;
5833;SDS011;2943;48.012;10.968;2023-03-23T02:51:08;8.77;;;6.13;;
5833;SDS011;2943;48.012;10.968;2023-03-23T02:53:39;8.00;;;5.17;;
5833;SDS011;2943;48.012;10.968;2023-03-23T02:56:08;7.37;;;5.70;;
5833;SDS011;2943;48.012;10.968;2023-03-23T02:58:36;7.50;;;6.33;;
5833;SDS011;2943;48.012;10.968;2023-03-23T03:01:14;8.90;;;6.10;;
5833;SDS011;2943;48.012;10.968;2023-03-23T03:03:59;8.43;;;6.07;;
5833;SDS011;2943;48.012;10.968;2023-03-23T03:06:32;9.83;;;7.00;;
5833;SDS011;2943;48.012;10.968;2023-03-23T03:09:05;11.40;;;8.23;;
5833;SDS011;2943;48.012;10.968;2023-03-23T03:11:39;10.97;;;7.87;;
5833;SDS011;2943;48.012;10.968;2023-03-23T03:14:13;8.73;;;6.70;;
5833;SDS011;2943;48.012;10.968;2023-03-23T03:16:47;10.53;;;6.60;;
5833;SDS011;2943;48.012;10.968;2023-03-23T03:19:20;8.03;;;6.57;;
5833;SDS011;2943;48.012;10.968;2023-03-23T03:21:51;7.67;;;6.40;;
5833;SDS011;2943;48.012;10.968;2023-03-23T03:24:20;8.70;;;6.70;;
5833;SDS011;2943;48.012;10.968;2023-03-23T03:26:49;9.27;;;6.50;;
5833;SDS011;2943;48.012;10.968;2023-03-23T03:29:20;13.90;;;6.40;;
5833;SDS011;2943;48.012;10.968;2023-03-23T03:31:49;9.27;;;6.10;;
5833;SDS011;2943;48.012;10.968;2023-03-23T03:34:22;8.73;;;6.80;;
5833;SDS011;2943;48.012;10.968;2023-03-23T03:36:49;7.97;;;5.77;;
5833;SDS011;2943;48.012;10.968;2023-03-23T03:39:18;8.33;;;6.20;;
5833;SDS011;2943;48.012;10.968;2023-03-23T03:41:46;8.07;;;6.10;;
5833;SDS011;2943;48.012;10.968;2023-03-23T03:44:14;8.60;;;6.47;;
5833;SDS011;2943;48.012;10.968;2023-03-23T03:46:41;5.63;;;4.93;;
5833;SDS011;2943;48.012;10.968;2023-03-23T03:49:08;8.57;;;5.93;;
5833;SDS011;2943;48.012;10.968;2023-03-23T03:51:38;8.03;;;5.23;;
5833;SDS011;2943;48.012;10.968;2023-03-23T03:54:06;6.30;;;5.63;;
5833;SDS011;2943;48.012;10.968;2023-03-23T03:56:33;9.80;;;6.90;;
5833;SDS011;2943;48.012;10.968;2023-03-23T03:59:03;9.70;;;7.10;;
5833;SDS011;2943;48.012;10.968;2023-03-23T04:01:30;7.70;;;6.17;;
5833;SDS011;2943;48.012;10.968;2023-03-23T04:03:57;9.57;;;6.77;;
5833;SDS011;2943;48.012;10.968;2023-03-23T04:06:24;11.40;;;7.20;;
5833;SDS011;2943;48.012;10.968;2023-03-23T04:08:54;7.57;;;6.17;;
5833;SDS011;2943;48.012;10.968;2023-03-23T04:11:21;10.33;;;6.00;;
5833;SDS011;2943;48.012;10.968;2023-03-23T04:13:48;6.33;;;5.73;;
5833;SDS011;2943;48.012;10.968;2023-03-23T04:16:15;10.23;;;5.73;;
5833;SDS011;2943;48.012;10.968;2023-03-23T04:18:42;7.47;;;6.20;;
5833;SDS011;2943;48.012;10.968;2023-03-23T04:21:09;8.97;;;6.43;;
5833;SDS011;2943;48.012;10.968;2023-03-23T04:23:36;13.77;;;6.87;;
5833;SDS011;2943;48.012;10.968;2023-03-23T04:26:04;14.13;;;8.73;;
5833;SDS011;2943;48.012;10.968;2023-03-23T04:28:31;15.10;;;9.40;;
5833;SDS011;2943;48.012;10.968;2023-03-23T04:31:00;16.77;;;8.23;;
5833;SDS011;2943;48.012;10.968;2023-03-23T04:33:27;12.80;;;7.17;;
5833;SDS011;2943;48.012;10.968;2023-03-23T04:35:56;10.50;;;8.07;;
5833;SDS011;2943;48.012;10.968;2023-03-23T04:38:27;13.13;;;7.13;;
5833;SDS011;2943;48.012;10.968;2023-03-23T04:40:57;10.57;;;7.40;;
5833;SDS011;2943;48.012;10.968;2023-03-23T04:43:28;9.60;;;7.27;;
5833;SDS011;2943;48.012;10.968;2023-03-23T04:45:55;11.90;;;8.30;;
5833;SDS011;2943;48.012;10.968;2023-03-23T04:48:23;14.83;;;7.60;;
5833;SDS011;2943;48.012;10.968;2023-03-23T04:50:51;10.87;;;7.30;;
5833;SDS011;2943;48.012;10.968;2023-03-23T04:53:18;14.50;;;8.10;;
5833;SDS011;2943;48.012;10.968;2023-03-23T04:55:45;10.73;;;7.40;;
5833;SDS011;2943;48.012;10.968;2023-03-23T04:58:14;12.47;;;7.90;;
5833;SDS011;2943;48.012;10.968;2023-03-23T05:00:43;12.93;;;7.87;;
5833;SDS011;2943;48.012;10.968;2023-03-23T05:03:14;15.43;;;8.67;;
5833;SDS011;2943;48.012;10.968;2023-03-23T05:05:41;14.60;;;8.73;;
5833;SDS011;2943;48.012;10.968;2023-03-23T05:08:12;17.60;;;8.50;;
5833;SDS011;2943;48.012;10.968;2023-03-23T05:10:39;12.60;;;8.20;;
5833;SDS011;2943;48.012;10.968;2023-03-23T05:13:06;9.53;;;7.07;;
5833;SDS011;2943;48.012;10.968;2023-03-23T05:15:33;12.30;;;7.40;;
5833;SDS011;2943;48.012;10.968;2023-03-23T05:18:02;12.13;;;6.60;;
5833;SDS011;2943;48.012;10.968;2023-03-23T05:20:29;9.77;;;6.10;;
5833;SDS011;2943;48.012;10.968;2023-03-23T05:22:57;10.90;;;6.43;;
5833;SDS011;2943;48.012;10.968;2023-03-23T05:25:24;18.00;;;8.80;;
5833;SDS011;2943;48.012;10.968;2023-03-23T05:27:51;15.57;;;8.63;;
5833;SDS011;2943;48.012;10.968;2023-03-23T05:30:18;12.20;;;7.83;;
5833;SDS011;2943;48.012;10.968;2023-03-23T05:32:48;13.47;;;8.30;;
5833;SDS011;2943;48.012;10.968;2023-03-23T05:35:17;9.70;;;6.70;;
5833;SDS011;2943;48.012;10.968;2023-03-23T05:37:45;6.97;;;5.97;;
5833;SDS011;2943;48.012;10.968;2023-03-23T05:40:12;8.10;;;6.00;;
5833;SDS011;2943;48.012;10.968;2023-03-23T05:42:39;9.50;;;6.40;;
5833;SDS011;2943;48.012;10.968;2023-03-23T05:45:07;8.73;;;6.40;;
5833;SDS011;2943;48.012;10.968;2023-03-23T05:47:37;5.90;;;5.30;;
5833;SDS011;2943;48.012;10.968;2023-03-23T05:50:05;10.10;;;6.10;;
5833;SDS011;2943;48.012;10.968;2023-03-23T05:52:35;6.20;;;5.60;;
5833;SDS011;2943;48.012;10.968;2023-03-23T05:55:03;8.07;;;5.47;;
5833;SDS011;2943;48.012;10.968;2023-03-23T05:57:31;8.57;;;6.30;;
5833;SDS011;2943;48.012;10.968;2023-03-23T05:59:58;11.83;;;7.53;;
5833;SDS011;2943;48.012;10.968;2023-03-23T06:02:31;12.83;;;9.60;;
5833;SDS011;2943;48.012;10.968;2023-03-23T06:04:59;15.07;;;8.63;;
5833;SDS011;2943;48.012;10.968;2023-03-23T06:07:26;9.57;;;7.70;;
5833;SDS011;2943;48.012;10.968;2023-03-23T06:09:54;17.07;;;7.10;;
5833;SDS011;2943;48.012;10.968;2023-03-23T06:12:21;8.60;;;6.23;;
5833;SDS011;2943;48.012;10.968;2023-03-23T06:14:49;7.57;;;5.50;;
5833;SDS011;2943;48.012;10.968;2023-03-23T06:17:16;6.57;;;4.70;;
5833;SDS011;2943;48.012;10.968;2023-03-23T06:19:43;6.57;;;4.40;;
5833;SDS011;2943;48.012;10.968;2023-03-23T06:22:11;8.83;;;5.83;;
5833;SDS011;2943;48.012;10.968;2023-03-23T06:24:39;9.20;;;5.50;;
5833;SDS011;2943;48.012;10.968;2023-03-23T06:27:07;7.03;;;5.37;;
5833;SDS011;2943;48.012;10.968;2023-03-23T06:29:35;12.50;;;5.30;;
5833;SDS011;2943;48.012;10.968;2023-03-23T06:32:02;9.03;;;5.03;;
5833;SDS011;2943;48.012;10.968;2023-03-23T06:34:30;5.40;;;4.43;;
5833;SDS011;2943;48.012;10.968;2023-03-23T06:36:58;7.20;;;4.60;;
5833;SDS011;2943;48.012;10.968;2023-03-23T06:39:25;7.00;;;4.43;;
5833;SDS011;2943;48.012;10.968;2023-03-23T06:41:52;5.57;;;4.20;;
5833;SDS011;2943;48.012;10.968;2023-03-23T06:44:20;4.70;;;4.20;;
5833;SDS011;2943;48.012;10.968;2023-03-23T06:46:47;5.90;;;5.00;;
5833;SDS011;2943;48.012;10.968;2023-03-23T06:49:14;5.03;;;4.30;;
5833;SDS011;2943;48.012;10.968;2023-03-23T06:51:41;7.53;;;4.07;;
5833;SDS011;2943;48.012;10.968;2023-03-23T06:54:08;7.03;;;4.30;;
5833;SDS011;2943;48.012;10.968;2023-03-23T06:56:35;6.27;;;4.30;;
5833;SDS011;2943;48.012;10.968;2023-03-23T06:59:02;9.17;;;5.07;;
5833;SDS011;2943;48.012;10.968;2023-03-23T07:01:30;14.23;;;4.73;;
5833;SDS011;2943;48.012;10.968;2023-03-23T07:03:57;6.53;;;4.53;;
5833;SDS011;2943;48.012;10.968;2023-03-23T07:06:24;4.83;;;4.00;;
5833;SDS011;2943;48.012;10.968;2023-03-23T07:08:53;5.53;;;4.20;;
5833;SDS011;2943;48.012;10.968;2023-03-23T07:11:20;6.93;;;4.00;;
5833;SDS011;2943;48.012;10.968;2023-03-23T07:13:47;5.10;;;4.00;;
5833;SDS011;2943;48.012;10.968;2023-03-23T07:16:15;7.03;;;3.77;;
5833;SDS011;2943;48.012;10.968;2023-03-23T07:18:44;16.60;;;4.47;;
5833;SDS011;2943;48.012;10.968;2023-03-23T07:21:11;7.03;;;3.57;;
5833;SDS011;2943;48.012;10.968;2023-03-23T07:23:38;5.93;;;3.80;;
5833;SDS011;2943;48.012;10.968;2023-03-23T07:26:05;5.50;;;3.47;;
5833;SDS011;2943;48.012;10.968;2023-03-23T07:28:33;3.80;;;3.40;;
5833;SDS011;2943;48.012;10.968;2023-03-23T07:31:01;3.30;;;2.97;;
5833;SDS011;2943;48.012;10.968;2023-03-23T07:33:28;5.43;;;3.27;;
5833;SDS011;2943;48.012;10.968;2023-03-23T07:35:57;3.70;;;3.07;;
5833;SDS011;2943;48.012;10.968;2023-03-23T07:38:24;5.30;;;3.40;;
5833;SDS011;2943;48.012;10.968;2023-03-23T07:40:52;3.30;;;3.00;;
5833;SDS011;2943;48.012;10.968;2023-03-23T07:43:19;4.80;;;3.67;;
5833;SDS011;2943;48.012;10.968;2023-03-23T07:45:47;5.20;;;3.60;;
5833;SDS011;2943;48.012;10.968;2023-03-23T07:48:14;4.87;;;3.70;;
5833;SDS011;2943;48.012;10.968;2023-03-23T07:50:41;4.87;;;3.83;;
5833;SDS011;2943;48.012;10.968;2023-03-23T07:53:10;4.17;;;3.63;;
5833;SDS011;2943;48.012;10.968;2023-03-23T07:55:40;4.83;;;3.83;;
5833;SDS011;2943;48.012;10.968;2023-03-23T07:58:08;3.77;;;3.47;;
5833;SDS011;2943;48.012;10.968;2023-03-23T08:00:35;8.00;;;4.00;;
5833;SDS011;2943;48.012;10.968;2023-03-23T08:03:04;3.50;;;3.20;;
5833;SDS011;2943;48.012;10.968;2023-03-23T08:05:31;3.40;;;3.10;;
5833;SDS011;2943;48.012;10.968;2023-03-23T08:07:59;4.07;;;3.63;;
5833;SDS011;2943;48.012;10.968;2023-03-23T08:10:27;6.50;;;3.80;;
5833;SDS011;2943;48.012;10.968;2023-03-23T08:12:55;5.07;;;3.67;;
5833;SDS011;2943;48.012;10.968;2023-03-23T08:15:24;3.90;;;3.43;;
5833;SDS011;2943;48.012;10.968;2023-03-23T08:17:51;4.77;;;3.80;;
5833;SDS011;2943;48.012;10.968;2023-03-23T08:20:19;7.20;;;3.40;;
5833;SDS011;2943;48.012;10.968;2023-03-23T08:22:49;5.07;;;3.40;;
5833;SDS011;2943;48.012;10.968;2023-03-23T08:25:18;3.67;;;3.10;;
5833;SDS011;2943;48.012;10.968;2023-03-23T08:27:47;4.60;;;3.20;;
5833;SDS011;2943;48.012;10.968;2023-03-23T08:30:15;3.20;;;2.70;;
5833;SDS011;2943;48.012;10.968;2023-03-23T08:32:44;3.67;;;3.20;;
5833;SDS011;2943;48.012;10.968;2023-03-23T08:35:12;20.70;;;5.40;;
5833;SDS011;2943;48.012;10.968;2023-03-23T08:37:41;13.77;;;4.27;;
5833;SDS011;2943;48.012;10.968;2023-03-23T08:40:09;4.10;;;3.00;;
5833;SDS011;2943;48.012;10.968;2023-03-23T08:42:37;5.20;;;3.07;;
5833;SDS011;2943;48.012;10.968;2023-03-23T08:45:07;4.60;;;3.10;;
5833;SDS011;2943;48.012;10.968;2023-03-23T08:47:36;5.17;;;3.10;;
5833;SDS011;2943;48.012;10.968;2023-03-23T08:50:03;7.00;;;6.40;;
5833;SDS011;2943;48.012;10.968;2023-03-23T08:52:32;6.70;;;5.20;;
5833;SDS011;2943;48.012;10.968;2023-03-23T08:54:59;4.20;;;3.17;;
5833;SDS011;2943;48.012;10.968;2023-03-23T08:57:26;4.63;;;3.30;;
5833;SDS011;2943;48.012;10.968;2023-03-23T08:59:54;4.00;;;3.60;;
5833;SDS011;2943;48.012;10.968;2023-03-23T09:02:26;4.77;;;3.50;;
5833;SDS011;2943;48.012;10.968;2023-03-23T09:04:56;4.30;;;3.30;;
5833;SDS011;2943;48.012;10.968;2023-03-23T09:07:22;6.20;;;3.13;;
5833;SDS011;2943;48.012;10.968;2023-03-23T09:09:49;3.90;;;3.50;;
5833;SDS011;2943;48.012;10.968;2023-03-23T09:12:16;4.33;;;3.50;;
5833;SDS011;2943;48.012;10.968;2023-03-23T09:14:43;7.33;;;3.67;;
5833;SDS011;2943;48.012;10.968;2023-03-23T09:17:11;6.63;;;3.80;;
5833;SDS011;2943;48.012;10.968;2023-03-23T09:19:40;6.60;;;3.63;;
5833;SDS011;2943;48.012;10.968;2023-03-23T09:22:07;5.57;;;3.33;;
5833;SDS011;2943;48.012;10.968;2023-03-23T09:24:34;3.77;;;2.97;;
5833;SDS011;2943;48.012;10.968;2023-03-23T09:27:02;3.80;;;3.27;;
5833;SDS011;2943;48.012;10.968;2023-03-23T09:29:29;3.60;;;3.30;;
5833;SDS011;2943;48.012;10.968;2023-03-23T09:31:56;11.43;;;3.70;;
5833;SDS011;2943;48.012;10.968;2023-03-23T09:34:23;4.00;;;3.30;;
5833;SDS011;2943;48.012;10.968;2023-03-23T09:36:51;4.27;;;3.53;;
5833;SDS011;2943;48.012;10.968;2023-03-23T09:39:18;17.33;;;4.93;;
5833;SDS011;2943;48.012;10.968;2023-03-23T09:41:55;9.97;;;4.10;;
5833;SDS011;2943;48.012;10.968;2023-03-23T09:44:36;4.83;;;3.60;;
5833;SDS011;2943;48.012;10.968;2023-03-23T09:47:11;6.03;;;4.00;;
5833;SDS011;2943;48.012;10.968;2023-03-23T09:49:47;7.17;;;4.37;;
5833;SDS011;2943;48.012;10.968;2023-03-23T09:52:19;6.53;;;4.83;;
5833;SDS011;2943;48.012;10.968;2023-03-23T09:54:47;5.90;;;4.30;;
5833;SDS011;2943;48.012;10.968;2023-03-23T09:57:18;6.70;;;4.87;;
5833;SDS011;2943;48.012;10.968;2023-03-23T09:59:52;8.10;;;4.67;;
5833;SDS011;2943;48.012;10.968;2023-03-23T10:02:24;8.13;;;5.00;;
5833;SDS011;2943;48.012;10.968;2023-03-23T10:04:56;6.37;;;5.10;;
5833;SDS011;2943;48.012;10.968;2023-03-23T10:07:31;9.57;;;5.23;;
5833;SDS011;2943;48.012;10.968;2023-03-23T10:09:59;6.57;;;4.83;;
5833;SDS011;2943;48.012;10.968;2023-03-23T10:12:29;10.63;;;5.40;;
5833;SDS011;2943;48.012;10.968;2023-03-23T10:15:14;11.13;;;5.20;;
5833;SDS011;2943;48.012;10.968;2023-03-23T10:17:47;9.03;;;6.00;;
5833;SDS011;2943;48.012;10.968;2023-03-23T10:20:24;9.93;;;5.60;;
5833;SDS011;2943;48.012;10.968;2023-03-23T10:23:10;8.73;;;5.87;;
5833;SDS011;2943;48.012;10.968;2023-03-23T10:25:41;9.40;;;5.57;;
5833;SDS011;2943;48.012;10.968;2023-03-23T10:28:15;6.60;;;5.13;;
5833;SDS011;2943;48.012;10.968;2023-03-23T10:30:45;6.47;;;4.57;;
5833;SDS011;2943;48.012;10.968;2023-03-23T10:33:15;8.50;;;4.83;;
5833;SDS011;2943;48.012;10.968;2023-03-23T10:35:48;11.23;;;3.97;;
5833;SDS011;2943;48.012;10.968;2023-03-23T10:38:29;6.87;;;4.23;;
5833;SDS011;2943;48.012;10.968;2023-03-23T10:41:00;4.57;;;3.20;;
5833;SDS011;2943;48.012;10.968;2023-03-23T10:43:31;5.33;;;3.77;;
5833;SDS011;2943;48.012;10.968;2023-03-23T10:46:00;6.70;;;3.97;;
5833;SDS011;2943;48.012;10.968;2023-03-23T10:48:29;5.23;;;3.87;;
5833;SDS011;2943;48.012;10.968;2023-03-23T10:50:57;4.87;;;3.70;;
5833;SDS011;2943;48.012;10.968;2023-03-23T10:53:29;5.30;;;4.43;;
5833;SDS011;2943;48.012;10.968;2023-03-23T10:55:59;5.20;;;3.90;;
5833;SDS011;2943;48.012;10.968;2023-03-23T10:58:27;7.03;;;4.20;;
5833;SDS011;2943;48.012;10.968;2023-03-23T11:00:55;5.73;;;4.40;;
5833;SDS011;2943;48.012;10.968;2023-03-23T11:03:28;6.63;;;4.60;;
5833;SDS011;2943;48.012;10.968;2023-03-23T11:06:05;9.27;;;4.20;;
5833;SDS011;2943;48.012;10.968;2023-03-23T11:08:36;8.53;;;4.30;;
5833;SDS011;2943;48.012;10.968;2023-03-23T11:11:09;7.97;;;4.30;;
5833;SDS011;2943;48.012;10.968;2023-03-23T11:13:42;7.37;;;5.00;;
5833;SDS011;2943;48.012;10.968;2023-03-23T11:16:10;5.13;;;4.10;;
5833;SDS011;2943;48.012;10.968;2023-03-23T11:18:48;6.37;;;5.10;;
5833;SDS011;2943;48.012;10.968;2023-03-23T11:21:17;4.97;;;4.20;;
5833;SDS011;2943;48.012;10.968;2023-03-23T11:23:48;8.03;;;4.77;;
5833;SDS011;2943;48.012;10.968;2023-03-23T11:26:19;6.77;;;5.30;;
5833;SDS011;2943;48.012;10.968;2023-03-23T11:28:51;8.10;;;4.20;;
5833;SDS011;2943;48.012;10.968;2023-03-23T11:31:21;7.67;;;4.87;;
5833;SDS011;2943;48.012;10.968;2023-03-23T11:33:52;5.83;;;4.60;;
5833;SDS011;2943;48.012;10.968;2023-03-23T11:36:21;7.17;;;4.90;;
5833;SDS011;2943;48.012;10.968;2023-03-23T11:38:57;5.13;;;4.20;;
5833;SDS011;2943;48.012;10.968;2023-03-23T11:41:28;7.80;;;4.67;;
5833;SDS011;2943;48.012;10.968;2023-03-23T11:44:01;8.43;;;5.10;;
5833;SDS011;2943;48.012;10.968;2023-03-23T11:46:34;7.10;;;3.90;;
5833;SDS011;2943;48.012;10.968;2023-03-23T11:49:08;10.80;;;3.60;;
5833;SDS011;2943;48.012;10.968;2023-03-23T11:51:42;4.30;;;3.40;;
5833;SDS011;2943;48.012;10.968;2023-03-23T11:54:17;4.00;;;3.40;;
5833;SDS011;2943;48.012;10.968;2023-03-23T11:56:50;12.80;;;3.37;;
5833;SDS011;2943;48.012;10.968;2023-03-23T11:59:17;4.00;;;3.17;;
5833;SDS011;2943;48.012;10.968;2023-03-23T12:01:53;4.23;;;3.60;;
5833;SDS011;2943;48.012;10.968;2023-03-23T12:04:33;6.40;;;4.03;;
5833;SDS011;2943;48.012;10.968;2023-03-23T12:07:12;18.80;;;3.67;;
5833;SDS011;2943;48.012;10.968;2023-03-23T12:09:49;5.93;;;3.10;;
5833;SDS011;2943;48.012;10.968;2023-03-23T12:12:22;3.07;;;2.63;;
5833;SDS011;2943;48.012;10.968;2023-03-23T12:14:59;4.50;;;2.70;;
5833;SDS011;2943;48.012;10.968;2023-03-23T12:17:35;3.20;;;2.90;;
5833;SDS011;2943;48.012;10.968;2023-03-23T12:20:15;4.80;;;3.03;;
5833;SDS011;2943;48.012;10.968;2023-03-23T12:22:55;3.27;;;2.97;;
5833;SDS011;2943;48.012;10.968;2023-03-23T12:25:54;7.73;;;3.23;;
5833;SDS011;2943;48.012;10.968;2023-03-23T12:28:40;4.30;;;2.97;;
5833;SDS011;2943;48.012;10.968;2023-03-23T12:31:20;4.07;;;3.63;;
5833;SDS011;2943;48.012;10.968;2023-03-23T12:33:55;3.67;;;2.47;;
5833;SDS011;2943;48.012;10.968;2023-03-23T12:36:41;5.13;;;3.10;;
5833;SDS011;2943;48.012;10.968;2023-03-23T12:39:38;6.07;;;2.90;;
5833;SDS011;2943;48.012;10.968;2023-03-23T12:42:18;3.60;;;2.93;;
5833;SDS011;2943;48.012;10.968;2023-03-23T12:44:53;4.53;;;3.00;;
5833;SDS011;2943;48.012;10.968;2023-03-23T12:47:26;2.87;;;2.50;;
5833;SDS011;2943;48.012;10.968;2023-03-23T12:50:03;2.63;;;2.43;;
5833;SDS011;2943;48.012;10.968;2023-03-23T12:52:36;3.33;;;2.77;;
5833;SDS011;2943;48.012;10.968;2023-03-23T12:55:18;2.73;;;2.53;;
5833;SDS011;2943;48.012;10.968;2023-03-23T12:57:53;3.17;;;2.40;;
5833;SDS011;2943;48.012;10.968;2023-03-23T13:00:25;3.03;;;2.73;;
5833;SDS011;2943;48.012;10.968;2023-03-23T13:02:57;2.70;;;2.50;;
5833;SDS011;2943;48.012;10.968;2023-03-23T13:05:28;2.67;;;2.33;;
5833;SDS011;2943;48.012;10.968;2023-03-23T13:08:07;2.60;;;2.40;;
5833;SDS011;2943;48.012;10.968;2023-03-23T13:10:38;6.40;;;2.60;;
5833;SDS011;2943;48.012;10.968;2023-03-23T13:13:13;5.20;;;2.80;;
5833;SDS011;2943;48.012;10.968;2023-03-23T13:15:44;5.07;;;2.80;;
5833;SDS011;2943;48.012;10.968;2023-03-23T13:18:24;3.80;;;2.80;;
5833;SDS011;2943;48.012;10.968;2023-03-23T13:21:02;4.57;;;3.10;;
5833;SDS011;2943;48.012;10.968;2023-03-23T13:23:35;4.77;;;2.90;;
5833;SDS011;2943;48.012;10.968;2023-03-23T13:26:06;4.50;;;2.83;;
5833;SDS011;2943;48.012;10.968;2023-03-23T13:28:43;4.93;;;2.73;;
5833;SDS011;2943;48.012;10.968;2023-03-23T13:31:19;4.67;;;3.50;;
5833;SDS011;2943;48.012;10.968;2023-03-23T13:33:50;4.10;;;2.80;;
5833;SDS011;2943;48.012;10.968;2023-03-23T13:36:19;3.80;;;3.13;;
5833;SDS011;2943;48.012;10.968;2023-03-23T13:38:54;2.63;;;2.40;;
5833;SDS011;2943;48.012;10.968;2023-03-23T13:41:22;5.93;;;2.77;;
5833;SDS011;2943;48.012;10.968;2023-03-23T13:43:51;3.30;;;2.80;;
5833;SDS011;2943;48.012;10.968;2023-03-23T13:46:25;2.97;;;2.77;;
5833;SDS011;2943;48.012;10.968;2023-03-23T13:49:05;3.17;;;2.87;;
5833;SDS011;2943;48.012;10.968;2023-03-23T13:51:47;3.27;;;2.83;;
5833;SDS011;2943;48.012;10.968;2023-03-23T13:54:39;4.17;;;3.50;;
5833;SDS011;2943;48.012;10.968;2023-03-23T13:57:23;3.00;;;2.70;;
5833;SDS011;2943;48.012;10.968;2023-03-23T14:00:10;4.53;;;2.80;;
5833;SDS011;2943;48.012;10.968;2023-03-23T14:02:51;12.87;;;3.23;;
5833;SDS011;2943;48.012;10.968;2023-03-23T14:05:29;7.90;;;2.90;;
5833;SDS011;2943;48.012;10.968;2023-03-23T14:07:59;7.67;;;3.00;;
5833;SDS011;2943;48.012;10.968;2023-03-23T14:10:32;3.50;;;2.97;;
5833;SDS011;2943;48.012;10.968;2023-03-23T14:13:01;3.27;;;2.97;;
5833;SDS011;2943;48.012;10.968;2023-03-23T14:15:40;2.83;;;2.63;;
5833;SDS011;2943;48.012;10.968;2023-03-23T14:18:12;3.93;;;3.53;;
5833;SDS011;2943;48.012;10.968;2023-03-23T14:20:41;4.10;;;3.17;;
5833;SDS011;2943;48.012;10.968;2023-03-23T14:23:12;4.10;;;3.00;;
5833;SDS011;2943;48.012;10.968;2023-03-23T14:25:41;3.17;;;2.87;;
5833;SDS011;2943;48.012;10.968;2023-03-23T14:28:16;6.10;;;2.90;;
5833;SDS011;2943;48.012;10.968;2023-03-23T14:30:45;6.37;;;3.13;;
5833;SDS011;2943;48.012;10.968;2023-03-23T14:33:12;2.80;;;2.60;;
5833;SDS011;2943;48.012;10.968;2023-03-23T14:35:40;4.73;;;2.77;;
5833;SDS011;2943;48.012;10.968;2023-03-23T14:38:11;3.90;;;3.13;;
5833;SDS011;2943;48.012;10.968;2023-03-23T14:40:43;3.90;;;2.83;;
5833;SDS011;2943;48.012;10.968;2023-03-23T14:43:10;3.70;;;2.90;;
5833;SDS011;2943;48.012;10.968;2023-03-23T14:45:41;6.30;;;2.90;;
5833;SDS011;2943;48.012;10.968;2023-03-23T14:48:10;3.57;;;2.77;;
5833;SDS011;2943;48.012;10.968;2023-03-23T14:50:42;3.33;;;2.97;;
5833;SDS011;2943;48.012;10.968;2023-03-23T14:53:16;2.63;;;2.43;;
5833;SDS011;2943;48.012;10.968;2023-03-23T14:55:46;3.47;;;2.47;;
5833;SDS011;2943;48.012;10.968;2023-03-23T14:58:15;10.97;;;2.93;;
5833;SDS011;2943;48.012;10.968;2023-03-23T15:00:43;3.20;;;2.80;;
5833;SDS011;2943;48.012;10.968;2023-03-23T15:03:17;4.97;;;2.50;;
5833;SDS011;2943;48.012;10.968;2023-03-23T15:05:45;4.20;;;3.20;;
5833;SDS011;2943;48.012;10.968;2023-03-23T15:08:15;8.23;;;2.93;;
5833;SDS011;2943;48.012;10.968;2023-03-23T15:10:51;6.30;;;2.90;;
5833;SDS011;2943;48.012;10.968;2023-03-23T15:13:20;8.40;;;3.10;;
5833;SDS011;2943;48.012;10.968;2023-03-23T15:15:47;6.90;;;3.17;;
5833;SDS011;2943;48.012;10.968;2023-03-23T15:18:22;3.27;;;2.97;;
5833;SDS011;2943;48.012;10.968;2023-03-23T15:20:56;4.90;;;3.40;;
5833;SDS011;2943;48.012;10.968;2023-03-23T15:23:26;5.57;;;3.40;;
5833;SDS011;2943;48.012;10.968;2023-03-23T15:25:54;3.33;;;2.90;;